createdAt,value
2024-01-16T00:00:04.497Z,985.8
2024-01-16T00:01:05.844Z,985.8
2024-01-16T00:02:13.097Z,985.8
2024-01-16T00:03:17.247Z,985.8
2024-01-16T00:04:18.571Z,985.8
2024-01-16T00:05:19.893Z,985.8
2024-01-16T00:06:21.309Z,985.8
2024-01-16T00:07:28.165Z,985.8
2024-01-16T00:08:32.206Z,985.8
2024-01-16T00:09:36.691Z,985.9
2024-01-16T00:10:37.924Z,985.9
2024-01-16T00:11:41.904Z,985.9
2024-01-16T00:12:48.039Z,985.9
2024-01-16T00:13:52.201Z,985.9
2024-01-16T00:14:59.462Z,985.9
2024-01-16T00:16:00.665Z,985.9
2024-01-16T00:17:07.320Z,986
2024-01-16T00:18:11.950Z,985.9
2024-01-16T00:19:13.935Z,985.9
2024-01-16T00:20:15.346Z,986
2024-01-16T00:21:16.557Z,986
2024-01-16T00:22:17.724Z,986
2024-01-16T00:23:22.032Z,986
2024-01-16T00:24:37.956Z,986
2024-01-16T00:25:40.066Z,986
2024-01-16T00:26:41.564Z,986
2024-01-16T00:27:42.862Z,986
2024-01-16T00:29:09.908Z,986
2024-01-16T00:30:13.928Z,986.1
2024-01-16T00:31:36.125Z,986.1
2024-01-16T00:32:40.351Z,986.1
2024-01-16T00:33:41.906Z,986.1
2024-01-16T00:34:45.585Z,986.1
2024-01-16T00:35:46.990Z,986.2
2024-01-16T00:36:51.122Z,986.2
2024-01-16T00:38:02.450Z,986.2
2024-01-16T00:39:06.422Z,986.2
2024-01-16T00:40:07.623Z,986.3
2024-01-16T00:41:08.923Z,986.3
2024-01-16T00:42:13.101Z,986.3
2024-01-16T00:43:16.989Z,986.3
2024-01-16T00:44:18.191Z,986.3
2024-01-16T00:45:22.417Z,986.4
2024-01-16T00:46:25.802Z,986.4
2024-01-16T00:47:27.277Z,986.4
2024-01-16T00:48:34.867Z,986.4
2024-01-16T00:49:36.391Z,986.5
2024-01-16T00:50:40.587Z,986.5
2024-01-16T00:51:44.343Z,986.6
2024-01-16T00:52:45.507Z,986.6
2024-01-16T00:53:49.894Z,986.6
2024-01-16T00:54:56.002Z,986.6
2024-01-16T00:55:57.163Z,986.6
2024-01-16T00:56:58.513Z,986.6
2024-01-16T00:58:02.655Z,986.6
2024-01-16T00:59:04.083Z,986.6
2024-01-16T01:00:08.163Z,986.6
2024-01-16T01:01:12.369Z,986.6
2024-01-16T01:02:13.880Z,986.7
2024-01-16T01:03:19.952Z,986.7
2024-01-16T01:04:23.786Z,986.7
2024-01-16T01:05:25.079Z,986.7
2024-01-16T01:06:29.480Z,986.7
2024-01-16T01:07:36.172Z,986.7
2024-01-16T01:08:37.464Z,986.7
2024-01-16T01:09:38.734Z,986.8
2024-01-16T01:10:45.920Z,986.8
2024-01-16T01:11:55.191Z,986.8
2024-01-16T01:12:56.517Z,986.8
2024-01-16T01:14:08.566Z,986.9
2024-01-16T01:15:10.119Z,986.9
2024-01-16T01:16:11.435Z,986.9
2024-01-16T01:17:15.649Z,987
2024-01-16T01:18:20.361Z,987
2024-01-16T01:19:34.168Z,987
2024-01-16T01:20:38.281Z,987
2024-01-16T01:21:39.995Z,987
2024-01-16T01:22:43.353Z,987
2024-01-16T01:24:08.376Z,987.1
2024-01-16T01:25:12.591Z,987.1
2024-01-16T01:26:13.965Z,987.1
2024-01-16T01:27:17.914Z,987.1
2024-01-16T01:28:29.299Z,987.2
2024-01-16T01:29:51.702Z,987.1
2024-01-16T01:31:10.993Z,987.1
2024-01-16T01:32:15.084Z,987.1
2024-01-16T01:33:16.763Z,987.1
2024-01-16T01:35:03.652Z,987.2
2024-01-16T01:36:10.125Z,987.2
2024-01-16T01:37:16.056Z,987.2
2024-01-16T01:38:41.178Z,987.2
2024-01-16T01:39:42.500Z,987.2
2024-01-16T01:40:48.482Z,987.2
2024-01-16T01:41:54.708Z,987.2
2024-01-16T01:42:58.838Z,987.2
2024-01-16T01:44:13.303Z,987.2
2024-01-16T01:45:19.431Z,987.2
2024-01-16T01:47:08.137Z,987.3
2024-01-16T01:49:38.300Z,987.3
2024-01-16T01:50:46.973Z,987.3
2024-01-16T01:51:55.892Z,987.4
2024-01-16T01:53:02.015Z,987.4
2024-01-16T01:54:04.033Z,987.4
2024-01-16T01:55:12.711Z,987.4
2024-01-16T01:56:24.421Z,987.4
2024-01-16T01:57:33.676Z,987.5
2024-01-16T01:58:48.212Z,987.5
2024-01-16T01:59:54.874Z,987.5
2024-01-16T02:01:09.382Z,987.5
2024-01-16T02:02:15.556Z,987.5
2024-01-16T02:04:23.971Z,987.6
2024-01-16T02:05:27.566Z,987.6
2024-01-16T02:06:31.954Z,987.6
2024-01-16T02:07:47.233Z,987.6
2024-01-16T02:08:51.441Z,987.6
2024-01-16T02:10:01.617Z,987.6
2024-01-16T02:11:10.193Z,987.7
2024-01-16T02:12:16.195Z,987.7
2024-01-16T02:13:31.997Z,987.7
2024-01-16T02:14:41.179Z,987.7
2024-01-16T02:15:42.548Z,987.7
2024-01-16T02:16:43.884Z,987.7
2024-01-16T02:18:56.155Z,987.7
2024-01-16T02:19:59.411Z,987.6
2024-01-16T02:21:00.788Z,987.6
2024-01-16T02:22:07.683Z,987.6
2024-01-16T02:23:11.687Z,987.6
2024-01-16T02:24:20.849Z,987.7
2024-01-16T02:25:26.889Z,987.7
2024-01-16T02:26:31.264Z,987.6
2024-01-16T02:27:41.561Z,987.6
2024-01-16T02:28:48.842Z,987.6
2024-01-16T02:29:52.895Z,987.7
2024-01-16T02:30:57.143Z,987.7
2024-01-16T02:31:58.455Z,987.7
2024-01-16T02:33:06.973Z,987.7
2024-01-16T02:34:08.899Z,987.7
2024-01-16T02:35:10.392Z,987.7
2024-01-16T02:36:14.467Z,987.7
2024-01-16T02:37:15.648Z,987.7
2024-01-16T02:38:19.836Z,987.8
2024-01-16T02:39:31.054Z,987.8
2024-01-16T02:40:34.956Z,987.8
2024-01-16T02:41:39.268Z,987.8
2024-01-16T02:42:45.580Z,987.8
2024-01-16T02:43:49.701Z,987.8
2024-01-16T02:44:56.611Z,987.9
2024-01-16T02:45:57.824Z,987.9
2024-01-16T02:47:05.042Z,987.9
2024-01-16T02:48:13.948Z,987.9
2024-01-16T02:49:15.316Z,987.9
2024-01-16T02:50:18.755Z,987.9
2024-01-16T02:51:19.934Z,987.9
2024-01-16T02:52:24.116Z,987.9
2024-01-16T02:53:30.257Z,988
2024-01-16T02:54:31.496Z,988
2024-01-16T02:55:32.701Z,988
2024-01-16T02:56:33.930Z,988
2024-01-16T02:57:35.188Z,988
2024-01-16T02:58:36.407Z,988
2024-01-16T02:59:37.666Z,988
2024-01-16T03:00:48.056Z,988
2024-01-16T03:02:02.541Z,988
2024-01-16T03:03:08.957Z,988
2024-01-16T03:04:10.282Z,988
2024-01-16T03:05:14.625Z,988.1
2024-01-16T03:06:24.140Z,988.1
2024-01-16T03:07:25.850Z,988.1
2024-01-16T03:08:38.836Z,988.1
2024-01-16T03:10:02.990Z,988.1
2024-01-16T03:11:07.371Z,988.2
2024-01-16T03:12:11.779Z,988.2
2024-01-16T03:13:15.657Z,988.2
2024-01-16T03:15:35.568Z,988.2
2024-01-16T03:16:41.858Z,988.2
2024-01-16T03:17:48.446Z,988.2
2024-01-16T03:19:04.057Z,988.2
2024-01-16T03:20:26.445Z,988.2
2024-01-16T03:22:36.730Z,988.2
2024-01-16T03:23:43.251Z,988.3
2024-01-16T03:24:44.671Z,988.3
2024-01-16T03:27:07.789Z,988.4
2024-01-16T03:28:17.816Z,988.4
2024-01-16T03:29:26.199Z,988.4
2024-01-16T03:30:36.762Z,988.4
2024-01-16T03:31:44.187Z,988.4
2024-01-16T03:32:45.563Z,988.4
2024-01-16T03:33:52.809Z,988.4
2024-01-16T03:35:06.748Z,988.4
2024-01-16T03:36:10.860Z,988.4
2024-01-16T03:37:15.051Z,988.4
2024-01-16T03:39:01.273Z,988.4
2024-01-16T03:40:05.476Z,988.4
2024-01-16T03:41:12.651Z,988.4
2024-01-16T03:42:16.886Z,988.4
2024-01-16T03:43:18.121Z,988.5
2024-01-16T03:44:21.706Z,988.5
2024-01-16T03:45:32.653Z,988.4
2024-01-16T03:46:42.255Z,988.4
2024-01-16T03:47:43.674Z,988.5
2024-01-16T03:48:57.207Z,988.5
2024-01-16T03:50:01.545Z,988.5
2024-01-16T03:51:23.621Z,988.5
2024-01-16T03:52:36.957Z,988.5
2024-01-16T03:53:41.167Z,988.5
2024-01-16T03:54:45.201Z,988.5
2024-01-16T03:55:49.435Z,988.5
2024-01-16T03:57:04.810Z,988.6
2024-01-16T03:58:05.993Z,988.5
2024-01-16T03:59:14.424Z,988.5
2024-01-16T04:00:18.394Z,988.5
2024-01-16T04:01:25.204Z,988.6
2024-01-16T04:02:31.355Z,988.6
2024-01-16T04:03:45.749Z,988.6
2024-01-16T04:04:46.951Z,988.6
2024-01-16T04:05:51.170Z,988.6
2024-01-16T04:06:55.266Z,988.6
2024-01-16T04:08:01.376Z,988.6
2024-01-16T04:09:07.831Z,988.7
2024-01-16T04:10:13.940Z,988.7
2024-01-16T04:11:20.649Z,988.7
2024-01-16T04:12:21.868Z,988.7
2024-01-16T04:13:23.070Z,988.7
2024-01-16T04:14:24.273Z,988.7
2024-01-16T04:15:45.628Z,988.8
2024-01-16T04:16:51.736Z,988.8
2024-01-16T04:19:15.018Z,988.8
2024-01-16T04:20:54.014Z,988.8
2024-01-16T04:21:58.031Z,988.9
2024-01-16T04:23:01.938Z,988.8
2024-01-16T04:24:03.241Z,988.8
2024-01-16T04:25:09.317Z,988.9
2024-01-16T04:27:40.471Z,988.9
2024-01-16T04:28:47.620Z,988.9
2024-01-16T04:29:57.773Z,988.9
2024-01-16T04:31:01.901Z,988.9
2024-01-16T04:32:05.676Z,988.9
2024-01-16T04:33:11.954Z,988.9
2024-01-16T04:34:34.730Z,988.9
2024-01-16T04:35:42.076Z,988.9
2024-01-16T04:36:43.524Z,988.9
2024-01-16T04:37:59.738Z,988.9
2024-01-16T04:39:01.776Z,988.9
2024-01-16T04:40:03.070Z,988.9
2024-01-16T04:41:25.298Z,988.9
2024-01-16T04:42:31.805Z,988.9
2024-01-16T04:43:33.028Z,988.9
2024-01-16T04:44:34.415Z,988.9
2024-01-16T04:45:38.397Z,988.9
2024-01-16T04:46:44.364Z,988.9
2024-01-16T04:47:50.603Z,988.9
2024-01-16T04:48:52.076Z,988.9
2024-01-16T04:49:56.178Z,988.9
2024-01-16T04:50:57.451Z,988.9
2024-01-16T04:52:04.284Z,989
2024-01-16T04:53:05.510Z,989
2024-01-16T04:54:06.662Z,989
2024-01-16T04:55:07.959Z,989
2024-01-16T04:56:11.161Z,989
2024-01-16T04:57:16.161Z,989
2024-01-16T04:58:17.436Z,989
2024-01-16T04:59:20.943Z,989
2024-01-16T05:00:22.182Z,989
2024-01-16T05:01:23.323Z,989
2024-01-16T05:02:27.204Z,989
2024-01-16T05:03:31.583Z,989
2024-01-16T05:04:32.987Z,989
2024-01-16T05:05:34.577Z,989
2024-01-16T05:06:36.204Z,989
2024-01-16T05:07:37.764Z,989
2024-01-16T05:08:39.144Z,989
2024-01-16T05:09:40.407Z,989
2024-01-16T05:10:46.206Z,989
2024-01-16T05:11:47.590Z,989
2024-01-16T05:12:54.322Z,989
2024-01-16T05:13:58.420Z,989
2024-01-16T05:15:04.410Z,989.1
2024-01-16T05:16:08.542Z,989
2024-01-16T05:17:12.460Z,989
2024-01-16T05:18:14.031Z,989
2024-01-16T05:19:15.513Z,989.1
2024-01-16T05:20:19.626Z,989.1
2024-01-16T05:21:20.819Z,989.1
2024-01-16T05:22:21.982Z,989.1
2024-01-16T05:23:26.247Z,989.1
2024-01-16T05:24:27.493Z,989.1
2024-01-16T05:25:28.698Z,989.1
2024-01-16T05:26:29.918Z,989
2024-01-16T05:27:31.200Z,989
2024-01-16T05:28:43.510Z,989
2024-01-16T05:29:45.434Z,989
2024-01-16T05:30:46.719Z,989.1
2024-01-16T05:31:50.721Z,989.1
2024-01-16T05:32:54.454Z,989
2024-01-16T05:33:55.936Z,989
2024-01-16T05:34:57.254Z,989
2024-01-16T05:36:01.379Z,989
2024-01-16T05:37:05.739Z,989
2024-01-16T05:38:06.964Z,989
2024-01-16T05:39:08.239Z,989
2024-01-16T05:40:12.003Z,989
2024-01-16T05:41:13.170Z,989
2024-01-16T05:42:14.378Z,989
2024-01-16T05:43:18.199Z,989.1
2024-01-16T05:44:32.476Z,989
2024-01-16T05:45:33.785Z,989.1
2024-01-16T05:46:35.170Z,989.1
2024-01-16T05:47:36.627Z,989.1
2024-01-16T05:48:43.307Z,989.1
2024-01-16T05:49:47.681Z,989.2
2024-01-16T05:50:49.203Z,989.1
2024-01-16T05:51:50.743Z,989.1
2024-01-16T05:52:51.992Z,989.1
2024-01-16T05:53:56.313Z,989.1
2024-01-16T05:54:57.513Z,989.1
2024-01-16T05:55:58.849Z,989.1
2024-01-16T05:57:00.189Z,989.1
2024-01-16T05:58:01.501Z,989.2
2024-01-16T05:59:02.667Z,989.2
2024-01-16T06:00:03.901Z,989.2
2024-01-16T06:01:07.826Z,989.2
2024-01-16T06:02:09.098Z,989.2
2024-01-16T06:03:10.424Z,989.2
2024-01-16T06:04:15.110Z,989.2
2024-01-16T06:05:16.466Z,989.2
2024-01-16T06:06:17.832Z,989.2
2024-01-16T06:07:19.254Z,989.2
2024-01-16T06:08:22.794Z,989.2
2024-01-16T06:09:26.734Z,989.2
2024-01-16T06:10:30.893Z,989.3
2024-01-16T06:11:32.136Z,989.2
2024-01-16T06:12:36.541Z,989.3
2024-01-16T06:13:40.627Z,989.2
2024-01-16T06:14:44.142Z,989.3
2024-01-16T06:15:45.313Z,989.3
2024-01-16T06:16:46.468Z,989.3
2024-01-16T06:17:47.853Z,989.3
2024-01-16T06:18:49.316Z,989.3
2024-01-16T06:19:50.574Z,989.2
2024-01-16T06:20:52.008Z,989.3
2024-01-16T06:21:53.280Z,989.3
2024-01-16T06:22:54.451Z,989.3
2024-01-16T06:23:55.722Z,989.3
2024-01-16T06:24:56.989Z,989.3
2024-01-16T06:25:58.170Z,989.3
2024-01-16T06:26:59.507Z,989.3
2024-01-16T06:28:04.536Z,989.3
2024-01-16T06:29:08.233Z,989.4
2024-01-16T06:30:25.514Z,989.4
2024-01-16T06:31:26.951Z,989.4
2024-01-16T06:32:28.452Z,989.5
2024-01-16T06:33:29.883Z,989.5
2024-01-16T06:34:31.628Z,989.5
2024-01-16T06:35:32.958Z,989.5
2024-01-16T06:36:34.139Z,989.5
2024-01-16T06:37:35.300Z,989.5
2024-01-16T06:38:36.489Z,989.5
2024-01-16T06:39:37.746Z,989.5
2024-01-16T06:40:38.903Z,989.5
2024-01-16T06:41:40.119Z,989.6
2024-01-16T06:42:41.330Z,989.6
2024-01-16T06:43:42.460Z,989.6
2024-01-16T06:44:43.701Z,989.6
2024-01-16T06:45:44.869Z,989.6
2024-01-16T06:46:46.078Z,989.5
2024-01-16T06:47:52.184Z,989.6
2024-01-16T06:48:53.629Z,989.6
2024-01-16T06:49:54.841Z,989.6
2024-01-16T06:50:56.168Z,989.6
2024-01-16T06:51:57.398Z,989.6
2024-01-16T06:52:58.563Z,989.6
2024-01-16T06:53:59.895Z,989.6
2024-01-16T06:55:01.270Z,989.6
2024-01-16T06:56:02.422Z,989.7
2024-01-16T06:57:03.604Z,989.6
2024-01-16T06:58:04.785Z,989.6
2024-01-16T06:59:10.204Z,989.7
2024-01-16T07:00:13.301Z,989.7
2024-01-16T07:01:15.027Z,989.7
2024-01-16T07:02:16.197Z,989.7
2024-01-16T07:03:17.347Z,989.7
2024-01-16T07:04:18.600Z,989.7
2024-01-16T07:05:19.987Z,989.7
2024-01-16T07:06:21.531Z,989.7
2024-01-16T07:07:22.780Z,989.7
2024-01-16T07:08:23.988Z,989.7
2024-01-16T07:09:25.186Z,989.7
2024-01-16T07:10:26.344Z,989.7
2024-01-16T07:11:27.552Z,989.8
2024-01-16T07:12:28.704Z,989.8
2024-01-16T07:13:29.887Z,989.9
2024-01-16T07:14:31.084Z,989.9
2024-01-16T07:15:32.284Z,989.9
2024-01-16T07:16:33.455Z,989.9
2024-01-16T07:17:34.893Z,989.9
2024-01-16T07:18:36.228Z,989.9
2024-01-16T07:19:37.590Z,989.9
2024-01-16T07:20:38.848Z,989.9
2024-01-16T07:21:40.059Z,989.9
2024-01-16T07:22:41.217Z,989.9
2024-01-16T07:23:42.438Z,989.9
2024-01-16T07:24:43.640Z,989.9
2024-01-16T07:25:44.847Z,990
2024-01-16T07:26:46.043Z,989.9
2024-01-16T07:27:47.246Z,990
2024-01-16T07:28:48.433Z,990
2024-01-16T07:29:49.611Z,990
2024-01-16T07:30:51.072Z,990
2024-01-16T07:31:52.263Z,990
2024-01-16T07:32:53.605Z,990
2024-01-16T07:33:55.409Z,990
2024-01-16T07:34:56.877Z,990.1
2024-01-16T07:35:58.107Z,990
2024-01-16T07:36:59.365Z,990
2024-01-16T07:38:05.319Z,990
2024-01-16T07:39:06.834Z,990
2024-01-16T07:40:07.995Z,990
2024-01-16T07:41:09.270Z,990
2024-01-16T07:42:10.448Z,990.1
2024-01-16T07:43:11.651Z,990.1
2024-01-16T07:44:12.824Z,990.1
2024-01-16T07:45:14.061Z,990.1
2024-01-16T07:46:15.309Z,990.1
2024-01-16T07:47:16.601Z,990.1
2024-01-16T07:48:18.009Z,990.1
2024-01-16T07:49:19.395Z,990.1
2024-01-16T07:50:20.586Z,990.1
2024-01-16T07:51:21.753Z,990.1
2024-01-16T07:52:22.921Z,990.1
2024-01-16T07:53:24.135Z,990.1
2024-01-16T07:54:25.307Z,990.1
2024-01-16T07:55:26.498Z,990.1
2024-01-16T07:56:27.703Z,990.1
2024-01-16T07:57:28.897Z,990
2024-01-16T07:58:30.080Z,990.1
2024-01-16T07:59:31.345Z,990
2024-01-16T08:00:32.632Z,990
2024-01-16T08:01:33.969Z,990.1
2024-01-16T08:02:35.431Z,990.1
2024-01-16T08:03:36.843Z,990.1
2024-01-16T08:04:38.009Z,990.1
2024-01-16T08:05:39.481Z,990.1
2024-01-16T08:06:41.298Z,990.1
2024-01-16T08:07:42.683Z,990.1
2024-01-16T08:08:43.895Z,990.1
2024-01-16T08:09:45.149Z,990.1
2024-01-16T08:10:46.340Z,990.1
2024-01-16T08:11:47.716Z,990.1
2024-01-16T08:12:49.016Z,990.1
2024-01-16T08:13:50.180Z,990.1
2024-01-16T08:14:51.500Z,990.1
2024-01-16T08:15:52.859Z,990.1
2024-01-16T08:16:54.018Z,990.1
2024-01-16T08:17:55.459Z,990.1
2024-01-16T08:18:56.930Z,990.1
2024-01-16T08:19:58.256Z,990.1
2024-01-16T08:20:59.511Z,990.2
2024-01-16T08:22:00.659Z,990.2
2024-01-16T08:23:01.834Z,990.2
2024-01-16T08:24:02.989Z,990.2
2024-01-16T08:25:04.168Z,990.2
2024-01-16T08:26:05.322Z,990.2
2024-01-16T08:27:06.488Z,990.2
2024-01-16T08:28:07.664Z,990.2
2024-01-16T08:29:08.874Z,990.2
2024-01-16T08:30:10.142Z,990.3
2024-01-16T08:31:11.380Z,990.3
2024-01-16T08:32:12.572Z,990.3
2024-01-16T08:33:14.019Z,990.2
2024-01-16T08:34:15.776Z,990.2
2024-01-16T08:35:17.405Z,990.2
2024-01-16T08:36:18.950Z,990.2
2024-01-16T08:37:23.079Z,990.3
2024-01-16T08:38:24.239Z,990.2
2024-01-16T08:39:25.393Z,990.3
2024-01-16T08:40:26.646Z,990.3
2024-01-16T08:41:27.816Z,990.2
2024-01-16T08:42:28.994Z,990.3
2024-01-16T08:43:30.162Z,990.3
2024-01-16T08:44:31.477Z,990.3
2024-01-16T08:45:32.752Z,990.2
2024-01-16T08:46:33.911Z,990.2
2024-01-16T08:47:35.413Z,990.2
2024-01-16T08:48:37.127Z,990.3
2024-01-16T08:49:38.774Z,990.2
2024-01-16T08:50:40.212Z,990.3
2024-01-16T08:51:41.398Z,990.3
2024-01-16T08:52:42.564Z,990.3
2024-01-16T08:53:44.101Z,990.2
2024-01-16T08:54:45.340Z,990.2
2024-01-16T08:55:46.518Z,990.2
2024-01-16T08:56:47.788Z,990.3
2024-01-16T08:57:49.007Z,990.3
2024-01-16T08:58:50.176Z,990.3
2024-01-16T08:59:51.457Z,990.3
2024-01-16T09:00:52.747Z,990.3
2024-01-16T09:01:53.906Z,990.3
2024-01-16T09:02:55.220Z,990.3
2024-01-16T09:03:56.470Z,990.3
2024-01-16T09:04:57.832Z,990.4
2024-01-16T09:05:59.474Z,990.4
2024-01-16T09:07:01.266Z,990.4
2024-01-16T09:08:02.880Z,990.5
2024-01-16T09:09:04.079Z,990.4
2024-01-16T09:10:05.248Z,990.5
2024-01-16T09:11:06.397Z,990.4
2024-01-16T09:12:07.573Z,990.5
2024-01-16T09:13:08.824Z,990.4
2024-01-16T09:14:10.058Z,990.4
2024-01-16T09:15:11.318Z,990.4
2024-01-16T09:16:12.503Z,990.4
2024-01-16T09:17:13.678Z,990.5
2024-01-16T09:18:14.996Z,990.4
2024-01-16T09:19:16.468Z,990.4
2024-01-16T09:20:17.772Z,990.4
2024-01-16T09:21:18.970Z,990.4
2024-01-16T09:22:20.130Z,990.4
2024-01-16T09:23:21.417Z,990.4
2024-01-16T09:24:22.668Z,990.4
2024-01-16T09:25:23.839Z,990.4
2024-01-16T09:26:25.160Z,990.5
2024-01-16T09:27:26.354Z,990.4
2024-01-16T09:28:27.611Z,990.4
2024-01-16T09:29:28.821Z,990.4
2024-01-16T09:30:30.072Z,990.4
2024-01-16T09:31:31.265Z,990.4
2024-01-16T09:32:32.476Z,990.4
2024-01-16T09:33:33.914Z,990.4
2024-01-16T09:34:35.309Z,990.4
2024-01-16T09:35:36.590Z,990.4
2024-01-16T09:36:37.795Z,990.4
2024-01-16T09:37:39.639Z,990.5
2024-01-16T09:38:41.110Z,990.5
2024-01-16T09:39:42.262Z,990.5
2024-01-16T09:40:43.427Z,990.4
2024-01-16T09:41:44.642Z,990.5
2024-01-16T09:42:45.809Z,990.5
2024-01-16T09:43:46.960Z,990.4
2024-01-16T09:44:48.271Z,990.5
2024-01-16T09:45:49.462Z,990.5
2024-01-16T09:46:50.741Z,990.5
2024-01-16T09:47:52.774Z,990.5
2024-01-16T09:48:54.850Z,990.5
2024-01-16T09:49:56.161Z,990.5
2024-01-16T09:50:57.619Z,990.5
2024-01-16T09:51:58.853Z,990.5
2024-01-16T09:53:00.779Z,990.5
2024-01-16T09:54:02.116Z,990.5
2024-01-16T09:55:03.396Z,990.5
2024-01-16T09:56:04.597Z,990.5
2024-01-16T09:57:05.806Z,990.5
2024-01-16T09:58:06.974Z,990.5
2024-01-16T09:59:08.162Z,990.5
2024-01-16T10:00:09.334Z,990.6
2024-01-16T10:01:10.553Z,990.5
2024-01-16T10:02:11.975Z,990.6
2024-01-16T10:03:13.188Z,990.6
2024-01-16T10:04:14.626Z,990.5
2024-01-16T10:05:16.262Z,990.5
2024-01-16T10:06:17.823Z,990.6
2024-01-16T10:07:19.028Z,990.6
2024-01-16T10:08:20.215Z,990.5
2024-01-16T10:09:21.379Z,990.5
2024-01-16T10:10:39.079Z,990.6
2024-01-16T10:11:51.135Z,990.6
2024-01-16T10:12:52.462Z,990.6
2024-01-16T10:13:53.625Z,990.6
2024-01-16T10:14:54.961Z,990.7
2024-01-16T10:15:56.307Z,990.7
2024-01-16T10:16:57.572Z,990.6
2024-01-16T10:17:58.866Z,990.7
2024-01-16T10:19:00.320Z,990.7
2024-01-16T10:20:01.745Z,990.7
2024-01-16T10:21:03.166Z,990.7
2024-01-16T10:22:04.538Z,990.7
2024-01-16T10:23:05.717Z,990.7
2024-01-16T10:24:06.893Z,990.6
2024-01-16T10:25:08.055Z,990.7
2024-01-16T10:26:09.384Z,990.6
2024-01-16T10:27:10.556Z,990.6
2024-01-16T10:28:11.711Z,990.6
2024-01-16T10:29:12.966Z,990.6
2024-01-16T10:30:14.895Z,990.6
2024-01-16T10:31:17.001Z,990.6
2024-01-16T10:32:19.195Z,990.6
2024-01-16T10:33:20.961Z,990.5
2024-01-16T10:34:22.643Z,990.6
2024-01-16T10:35:24.280Z,990.5
2024-01-16T10:36:25.556Z,990.5
2024-01-16T10:37:26.778Z,990.5
2024-01-16T10:38:28.055Z,990.5
2024-01-16T10:39:43.764Z,990.5
2024-01-16T10:40:45.402Z,990.5
2024-01-16T10:41:46.712Z,990.5
2024-01-16T10:42:47.972Z,990.5
2024-01-16T10:43:49.140Z,990.4
2024-01-16T10:44:50.525Z,990.5
2024-01-16T10:45:51.700Z,990.5
2024-01-16T10:46:52.870Z,990.5
2024-01-16T10:47:54.175Z,990.5
2024-01-16T10:48:55.603Z,990.4
2024-01-16T10:49:56.872Z,990.4
2024-01-16T10:50:58.130Z,990.5
2024-01-16T10:51:59.327Z,990.5
2024-01-16T10:53:00.518Z,990.5
2024-01-16T10:54:01.668Z,990.4
2024-01-16T10:55:02.859Z,990.5
2024-01-16T10:56:04.000Z,990.5
2024-01-16T10:57:05.166Z,990.5
2024-01-16T10:58:06.335Z,990.5
2024-01-16T10:59:07.544Z,990.5
2024-01-16T11:00:08.687Z,990.5
2024-01-16T11:01:09.892Z,990.5
2024-01-16T11:02:11.093Z,990.5
2024-01-16T11:03:12.294Z,990.5
2024-01-16T11:04:16.446Z,990.5
2024-01-16T11:05:17.765Z,990.5
2024-01-16T11:06:20.107Z,990.5
2024-01-16T11:07:21.929Z,990.5
2024-01-16T11:08:23.317Z,990.5
2024-01-16T11:09:24.507Z,990.4
2024-01-16T11:10:25.668Z,990.4
2024-01-16T11:11:26.894Z,990.5
2024-01-16T11:12:28.069Z,990.4
2024-01-16T11:13:29.231Z,990.4
2024-01-16T11:14:30.466Z,990.5
2024-01-16T11:15:31.634Z,990.5
2024-01-16T11:16:32.799Z,990.5
2024-01-16T11:17:34.075Z,990.5
2024-01-16T11:18:35.520Z,990.5
2024-01-16T11:20:04.489Z,990.5
2024-01-16T11:21:39.310Z,990.4
2024-01-16T11:22:40.879Z,990.5
2024-01-16T11:23:42.206Z,990.5
2024-01-16T11:24:43.362Z,990.4
2024-01-16T11:25:44.569Z,990.4
2024-01-16T11:26:45.833Z,990.4
2024-01-16T11:27:47.074Z,990.4
2024-01-16T11:28:48.253Z,990.5
2024-01-16T11:29:49.484Z,990.5
2024-01-16T11:30:50.693Z,990.5
2024-01-16T11:31:56.473Z,990.5
2024-01-16T11:33:19.662Z,990.4
2024-01-16T11:34:21.187Z,990.4
2024-01-16T11:35:22.674Z,990.4
2024-01-16T11:36:23.848Z,990.4
2024-01-16T11:37:25.018Z,990.4
2024-01-16T11:38:27.532Z,990.4
2024-01-16T11:39:28.780Z,990.4
2024-01-16T11:40:29.957Z,990.4
2024-01-16T11:41:42.983Z,990.3
2024-01-16T11:42:44.372Z,990.3
2024-01-16T11:43:45.538Z,990.3
2024-01-16T11:44:46.748Z,990.3
2024-01-16T11:45:47.913Z,990.3
2024-01-16T11:46:51.916Z,990.3
2024-01-16T11:47:53.442Z,990.3
2024-01-16T11:48:54.888Z,990.3
2024-01-16T11:49:56.197Z,990.2
2024-01-16T11:50:57.459Z,990.3
2024-01-16T11:51:58.674Z,990.2
2024-01-16T11:52:59.840Z,990.2
2024-01-16T11:54:01.084Z,990.2
2024-01-16T11:55:02.369Z,990.1
2024-01-16T11:56:03.497Z,990.2
2024-01-16T11:57:04.711Z,990.1
2024-01-16T11:58:05.844Z,990.1
2024-01-16T11:59:07.003Z,990.1
2024-01-16T12:00:08.171Z,990.2
2024-01-16T12:01:09.428Z,990.2
2024-01-16T12:02:10.615Z,990.2
2024-01-16T12:03:12.305Z,990.1
2024-01-16T12:04:16.866Z,990
2024-01-16T12:05:18.134Z,990.1
2024-01-16T12:06:19.747Z,990
2024-01-16T12:07:21.170Z,990
2024-01-16T12:08:22.387Z,990
2024-01-16T12:09:23.573Z,990
2024-01-16T12:10:24.751Z,990
2024-01-16T12:11:41.091Z,990
2024-01-16T12:12:45.027Z,990
2024-01-16T12:13:46.215Z,990
2024-01-16T12:14:47.405Z,990
2024-01-16T12:15:48.635Z,990
2024-01-16T12:16:49.831Z,990
2024-01-16T12:17:51.190Z,990
2024-01-16T12:18:52.748Z,990
2024-01-16T12:19:54.241Z,990.1
2024-01-16T12:20:55.580Z,990.1
2024-01-16T12:21:56.802Z,990.1
2024-01-16T12:22:58.009Z,990.1
2024-01-16T12:24:12.132Z,990.1
2024-01-16T12:25:19.301Z,990
2024-01-16T12:26:20.530Z,990.1
2024-01-16T12:27:21.698Z,990.1
2024-01-16T12:28:31.148Z,990.1
2024-01-16T12:29:35.184Z,990.1
2024-01-16T12:30:36.395Z,990
2024-01-16T12:31:37.578Z,990
2024-01-16T12:32:38.879Z,990
2024-01-16T12:33:51.594Z,990
2024-01-16T12:35:05.046Z,990.1
2024-01-16T12:36:07.400Z,990.1
2024-01-16T12:37:08.610Z,990.1
2024-01-16T12:38:09.776Z,990.1
2024-01-16T12:39:10.931Z,990.1
2024-01-16T12:40:12.103Z,990.1
2024-01-16T12:41:13.386Z,990
2024-01-16T12:42:14.875Z,990.1
2024-01-16T12:43:16.082Z,990.1
2024-01-16T12:44:18.706Z,990.1
2024-01-16T12:45:19.990Z,990.1
2024-01-16T12:46:21.163Z,990
2024-01-16T12:47:22.403Z,990.1
2024-01-16T12:48:23.839Z,990.1
2024-01-16T12:49:26.217Z,990.1
2024-01-16T12:50:28.012Z,990
2024-01-16T12:51:29.236Z,990
2024-01-16T12:52:30.432Z,990
2024-01-16T12:53:31.621Z,990
2024-01-16T12:54:32.925Z,990
2024-01-16T12:55:34.170Z,990
2024-01-16T12:56:39.342Z,990
2024-01-16T12:58:01.712Z,990
2024-01-16T12:59:08.742Z,990
2024-01-16T13:00:12.060Z,990
2024-01-16T13:01:18.127Z,990
2024-01-16T13:02:32.719Z,990
2024-01-16T13:03:33.924Z,990
2024-01-16T13:04:35.288Z,990
2024-01-16T13:05:36.614Z,990
2024-01-16T13:06:38.991Z,990
2024-01-16T13:07:40.874Z,990
2024-01-16T13:08:42.041Z,989.9
2024-01-16T13:09:43.180Z,989.9
2024-01-16T13:10:44.339Z,989.9
2024-01-16T13:11:45.530Z,989.9
2024-01-16T13:12:46.689Z,989.9
2024-01-16T13:13:47.876Z,989.9
2024-01-16T13:14:49.063Z,989.9
2024-01-16T13:15:50.239Z,989.9
2024-01-16T13:16:51.396Z,989.9
2024-01-16T13:17:52.651Z,989.9
2024-01-16T13:18:54.022Z,989.9
2024-01-16T13:19:55.210Z,990
2024-01-16T13:20:56.483Z,990
2024-01-16T13:21:57.658Z,989.9
2024-01-16T13:22:58.942Z,990
2024-01-16T13:24:00.152Z,990
2024-01-16T13:25:09.685Z,990
2024-01-16T13:26:10.893Z,990
2024-01-16T13:27:12.060Z,990
2024-01-16T13:28:13.223Z,990
2024-01-16T13:29:14.686Z,990.1
2024-01-16T13:30:16.128Z,990
2024-01-16T13:31:17.378Z,990
2024-01-16T13:32:18.714Z,990
2024-01-16T13:33:20.317Z,990
2024-01-16T13:34:26.518Z,990
2024-01-16T13:35:28.552Z,990
2024-01-16T13:37:00.575Z,990
2024-01-16T13:38:17.670Z,990
2024-01-16T13:39:19.016Z,990
2024-01-16T13:40:23.202Z,990
2024-01-16T13:41:26.367Z,990
2024-01-16T13:42:27.665Z,990.1
2024-01-16T13:43:28.833Z,990
2024-01-16T13:44:30.226Z,990
2024-01-16T13:45:31.354Z,990
2024-01-16T13:46:42.866Z,990
2024-01-16T13:48:07.067Z,990
2024-01-16T13:49:08.627Z,990
2024-01-16T13:50:10.104Z,990
2024-01-16T13:51:11.290Z,990
2024-01-16T13:52:12.478Z,990
2024-01-16T13:53:13.802Z,989.9
2024-01-16T13:54:15.095Z,990
2024-01-16T13:55:16.317Z,989.9
2024-01-16T13:56:25.060Z,989.9
2024-01-16T13:57:53.721Z,989.9
2024-01-16T13:58:54.911Z,989.9
2024-01-16T13:59:56.300Z,989.9
2024-01-16T14:00:57.641Z,989.9